Time;durP1;ratioP1;P1;durP2;ratioP2;P2;SDS_P1;SDS_P2;PMS_P1;PMS_P2;Temp;Humidity;BMP_temperature;BMP_pressure;BME280_temperature;BME280_humidity;BME280_pressure;Samples;Min_cycle;Max_cycle;Signal;HPM_P1;HPM_P2
2021/04/10 00:01:44;;;;;;;3.90;2.17;;;;;;;11.30;37.07;95394.78;5133926;27;20222;-82
2021/04/10 00:04:11;;;;;;;4.57;2.70;;;;;;;11.29;37.68;95382.88;5133801;27;20203;-82
2021/04/10 00:06:38;;;;;;;3.03;2.30;;;;;;;11.25;37.77;95388.56;5134903;27;20206;-83
2021/04/10 00:09:06;;;;;;;3.87;2.17;;;;;;;11.28;37.51;95383.84;5133502;27;20306;-82
2021/04/10 00:11:32;;;;;;;2.20;2.00;;;;;;;11.29;37.66;95379.50;5133862;27;20231;-80
2021/04/10 00:13:59;;;;;;;2.77;2.30;;;;;;;11.28;37.76;95378.69;5133952;27;20214;-83
2021/04/10 00:16:25;;;;;;;4.97;2.13;;;;;;;11.25;38.36;95380.84;5134024;27;20218;-83
2021/04/10 00:18:51;;;;;;;3.47;2.20;;;;;;;11.26;37.98;95383.22;5134031;27;20198;-82
2021/04/10 00:21:17;;;;;;;4.87;2.37;;;;;;;11.22;37.85;95381.22;5133566;27;20245;-83
2021/04/10 00:23:44;;;;;;;2.77;2.20;;;;;;;11.21;37.37;95370.09;5133225;27;20856;-83
2021/04/10 00:26:11;;;;;;;2.63;2.30;;;;;;;11.13;38.36;95372.81;5134043;27;20219;-82
2021/04/10 00:28:37;;;;;;;3.90;2.10;;;;;;;11.10;38.50;95373.19;5133944;27;20222;-83
2021/04/10 00:31:07;;;;;;;2.63;2.20;;;;;;;11.11;38.24;95363.69;5133646;27;20223;-83
2021/04/10 00:33:33;;;;;;;7.00;2.47;;;;;;;11.10;38.12;95362.88;5134128;27;20217;-83
2021/04/10 00:35:59;;;;;;;2.80;2.23;;;;;;;11.08;38.40;95370.78;5133666;27;20230;-81
2021/04/10 00:38:28;;;;;;;3.03;2.60;;;;;;;11.08;38.13;95360.50;5134445;27;20593;-82
2021/04/10 00:40:55;;;;;;;4.70;2.50;;;;;;;11.06;38.95;95369.38;5133969;27;20226;-81
2021/04/10 00:43:21;;;;;;;2.80;2.23;;;;;;;11.01;39.18;95371.69;5134348;27;20226;-82
2021/04/10 00:45:47;;;;;;;4.80;2.47;;;;;;;10.99;39.06;95360.78;5135087;27;20282;-83
2021/04/10 00:48:13;;;;;;;3.50;2.37;;;;;;;10.89;38.91;95361.09;5134716;27;20226;-82
2021/04/10 00:50:39;;;;;;;2.70;2.33;;;;;;;10.88;39.20;95356.13;5134038;27;20310;-82
2021/04/10 00:53:05;;;;;;;2.93;2.20;;;;;;;10.84;38.99;95354.91;5134614;27;20230;-83
2021/04/10 00:55:31;;;;;;;3.10;2.50;;;;;;;10.85;39.08;95351.34;5134289;27;20222;-83
2021/04/10 00:57:58;;;;;;;3.97;2.40;;;;;;;10.82;39.47;95356.84;5135628;27;20206;-82
2021/04/10 01:00:24;;;;;;;2.93;2.20;;;;;;;10.84;39.34;95353.13;5134609;27;20237;-83
2021/04/10 01:02:51;;;;;;;3.00;2.30;;;;;;;10.83;39.59;95350.72;5134279;27;20214;-82
2021/04/10 01:05:17;;;;;;;4.57;2.90;;;;;;;10.83;39.61;95358.44;5134854;27;20218;-82
2021/04/10 01:07:43;;;;;;;3.97;2.30;;;;;;;10.80;40.04;95349.31;5135249;27;20271;-83
2021/04/10 01:10:11;;;;;;;4.50;2.50;;;;;;;10.73;39.56;95353.63;5134307;27;20199;-83
2021/04/10 01:12:52;;;;;;;4.60;2.70;;;;;;;10.69;39.43;95355.75;5136553;27;20436;-82
2021/04/10 01:15:26;;;;;;;2.50;2.30;;;;;;;10.66;39.97;95355.31;5134927;27;20214;-83
2021/04/10 01:17:59;;;;;;;6.13;3.17;;;;;;;10.68;39.31;95359.31;5137695;27;20225;-84
2021/04/10 01:20:42;;;;;;;4.10;2.70;;;;;;;10.61;39.34;95363.56;5134406;27;20495;-83
2021/04/10 01:23:57;;;;;;;4.77;2.60;;;;;;;10.52;39.45;95361.31;5135100;27;20305;-83
2021/04/10 01:26:36;;;;;;;3.70;2.57;;;;;;;10.45;39.64;95366.38;5121745;27;20778;-82
2021/04/10 01:29:06;;;;;;;2.90;2.60;;;;;;;10.48;39.38;95366.00;5134523;27;20227;-83
2021/04/10 01:31:37;;;;;;;3.20;2.37;;;;;;;10.45;39.55;95360.44;5133816;27;20218;-84
2021/04/10 01:34:07;;;;;;;2.87;2.50;;;;;;;10.40;39.44;95366.09;5134354;27;20589;-82
2021/04/10 01:36:37;;;;;;;2.60;2.40;;;;;;;10.35;40.23;95365.88;5134258;27;20674;-84
2021/04/10 01:39:06;;;;;;;3.17;2.40;;;;;;;10.28;40.07;95360.63;5133621;27;20226;-83
2021/04/10 01:41:34;;;;;;;6.50;2.70;;;;;;;10.31;39.83;95359.47;5134028;27;20271;-83
2021/04/10 01:44:02;;;;;;;3.23;2.63;;;;;;;10.33;40.08;95362.69;5133982;27;20230;-83
2021/04/10 01:46:31;;;;;;;3.77;2.87;;;;;;;10.37;40.14;95367.28;5133738;27;20222;-83
2021/04/10 01:48:59;;;;;;;3.73;2.60;;;;;;;10.36;39.96;95367.47;5134677;27;20202;-83
2021/04/10 01:51:27;;;;;;;2.80;2.47;;;;;;;10.29;40.21;95369.16;5134274;27;20218;-84
2021/04/10 01:53:54;;;;;;;3.10;2.80;;;;;;;10.35;40.32;95373.59;5134196;27;20230;-83
2021/04/10 01:56:23;;;;;;;2.90;2.60;;;;;;;10.36;40.44;95370.84;5134490;27;20221;-83
2021/04/10 01:58:50;;;;;;;4.03;2.97;;;;;;;10.34;40.17;95375.38;5133905;27;20230;-82
2021/04/10 02:01:17;;;;;;;3.27;2.60;;;;;;;10.30;40.42;95373.31;5133382;27;20263;-83
2021/04/10 02:03:45;;;;;;;5.03;2.60;;;;;;;10.34;40.63;95366.84;5135132;27;20219;-83
2021/04/10 02:06:13;;;;;;;3.90;2.60;;;;;;;10.33;40.81;95365.25;5133787;27;20211;-83
2021/04/10 02:08:41;;;;;;;2.60;2.40;;;;;;;10.31;40.41;95369.78;5133699;27;20226;-83
2021/04/10 02:11:07;;;;;;;3.43;2.77;;;;;;;10.20;40.46;95363.28;5132525;27;20241;-83
2021/04/10 02:13:35;;;;;;;3.33;2.37;;;;;;;10.22;40.84;95365.69;5134174;27;20222;-83
2021/04/10 02:16:01;;;;;;;3.93;2.77;;;;;;;10.15;40.51;95368.16;5134287;27;20210;-82
2021/04/10 02:18:27;;;;;;;3.07;2.60;;;;;;;10.17;40.47;95368.00;5134199;27;20227;-83
2021/04/10 02:20:55;;;;;;;3.20;2.50;;;;;;;10.20;40.73;95372.81;5132621;27;20218;-84
2021/04/10 02:23:21;;;;;;;4.80;2.57;;;;;;;10.16;40.87;95371.53;5132872;27;20227;-84
2021/04/10 02:25:47;;;;;;;3.03;2.40;;;;;;;10.16;40.65;95363.81;5133201;27;20226;-84
2021/04/10 02:28:13;;;;;;;4.07;2.70;;;;;;;10.12;41.10;95373.66;5133592;27;20600;-84
2021/04/10 02:30:40;;;;;;;3.23;2.40;;;;;;;10.24;40.29;95361.16;5132720;27;20227;-83
2021/04/10 02:33:11;;;;;;;5.80;2.80;;;;;;;10.30;40.82;95366.41;5132889;27;20225;-83
2021/04/10 02:35:42;;;;;;;5.40;2.47;;;;;;;10.33;40.46;95360.09;5133438;27;20222;-85
2021/04/10 02:38:11;;;;;;;2.77;2.30;;;;;;;10.39;40.27;95361.97;5132573;27;20218;-85
2021/04/10 02:40:41;;;;;;;4.27;2.47;;;;;;;10.43;40.32;95358.03;5132712;27;20237;-85
2021/04/10 02:43:10;;;;;;;3.37;2.60;;;;;;;10.42;40.29;95356.44;5132560;27;20199;-85
2021/04/10 02:45:37;;;;;;;4.97;2.37;;;;;;;10.41;40.17;95357.41;5133108;27;20209;-85
2021/04/10 02:48:08;;;;;;;3.00;2.30;;;;;;;10.41;40.46;95359.97;5132741;27;20233;-85
2021/04/10 02:50:35;;;;;;;2.50;2.30;;;;;;;10.37;40.54;95353.63;5132566;27;20226;-85
2021/04/10 02:53:03;;;;;;;2.67;2.10;;;;;;;10.35;40.43;95358.94;5132208;27;20223;-85
2021/04/10 02:55:34;;;;;;;3.03;2.63;;;;;;;10.36;40.65;95352.03;5132794;27;20218;-85
2021/04/10 02:58:02;;;;;;;4.53;2.40;;;;;;;10.36;40.56;95352.03;5133853;27;20205;-85
2021/04/10 03:00:28;;;;;;;4.23;2.43;;;;;;;10.46;40.15;95355.09;5132367;27;20229;-85
2021/04/10 03:02:57;;;;;;;2.87;2.37;;;;;;;10.49;40.44;95351.38;5132251;27;20629;-84
2021/04/10 03:05:23;;;;;;;4.53;2.20;;;;;;;10.55;40.03;95355.81;5132759;27;20219;-85
2021/04/10 03:07:52;;;;;;;2.53;2.33;;;;;;;10.61;40.43;95357.63;5133851;27;20891;-85
2021/04/10 03:10:18;;;;;;;4.87;2.40;;;;;;;10.65;40.37;95364.00;5134061;27;20198;-83
2021/04/10 03:12:46;;;;;;;3.47;2.40;;;;;;;10.64;40.28;95355.50;5135991;27;20183;-83
2021/04/10 03:15:13;;;;;;;6.63;2.60;;;;;;;10.64;40.12;95354.69;5136154;27;20346;-85
2021/04/10 03:17:41;;;;;;;3.77;2.40;;;;;;;10.57;40.16;95354.66;5136027;27;20214;-82
2021/04/10 03:20:11;;;;;;;5.63;2.47;;;;;;;10.51;40.51;95354.56;5138240;27;20229;-84
2021/04/10 03:22:38;;;;;;;5.47;2.27;;;;;;;10.46;40.29;95362.03;5137435;27;20229;-84
2021/04/10 03:25:05;;;;;;;4.07;2.33;;;;;;;10.49;40.21;95365.03;5136376;28;20214;-82
2021/04/10 03:27:31;;;;;;;3.40;2.20;;;;;;;10.52;40.12;95356.16;5134772;27;20218;-83
2021/04/10 03:29:58;;;;;;;5.17;2.60;;;;;;;10.50;40.49;95363.25;5134563;27;20222;-82
2021/04/10 03:32:26;;;;;;;3.00;2.40;;;;;;;10.54;39.99;95365.31;5134173;27;20245;-83
2021/04/10 03:34:52;;;;;;;3.10;2.40;;;;;;;10.52;40.54;95363.88;5134692;27;20225;-81
2021/04/10 03:37:18;;;;;;;4.43;2.50;;;;;;;10.53;40.64;95362.91;5134673;27;20208;-81
2021/04/10 03:39:45;;;;;;;5.23;2.70;;;;;;;10.50;40.33;95366.63;5135663;27;20203;-83
2021/04/10 03:42:12;;;;;;;5.17;2.30;;;;;;;10.49;40.49;95364.25;5134628;27;20226;-84
2021/04/10 03:44:38;;;;;;;4.37;2.50;;;;;;;10.49;40.36;95370.19;5134766;27;20231;-83
2021/04/10 03:47:05;;;;;;;3.70;2.40;;;;;;;10.51;40.28;95365.66;5136094;27;20675;-83
2021/04/10 03:49:31;;;;;;;3.17;2.53;;;;;;;10.44;40.90;95372.50;5135114;27;20295;-83
2021/04/10 03:51:57;;;;;;;5.53;2.60;;;;;;;10.44;40.65;95377.63;5135846;28;20596;-83
2021/04/10 03:54:23;;;;;;;5.03;2.50;;;;;;;10.45;40.47;95373.28;5135558;27;20232;-83
2021/04/10 03:56:49;;;;;;;3.47;2.50;;;;;;;10.41;41.05;95375.44;5135359;27;20233;-83
2021/04/10 03:59:15;;;;;;;4.00;2.50;;;;;;;10.43;40.65;95383.75;5136438;27;20230;-82
2021/04/10 04:01:41;;;;;;;3.27;2.40;;;;;;;10.50;40.46;95376.13;5135835;27;20223;-82
2021/04/10 04:04:08;;;;;;;5.13;2.50;;;;;;;10.48;40.81;95370.38;5136345;27;20249;-83
2021/04/10 04:06:34;;;;;;;6.03;2.90;;;;;;;10.50;40.33;95373.56;5136334;28;20191;-82
2021/04/10 04:09:00;;;;;;;6.90;2.63;;;;;;;10.53;40.84;95380.91;5136641;27;20339;-84
2021/04/10 04:11:26;;;;;;;3.23;2.50;;;;;;;10.52;40.95;95381.91;5137711;27;20231;-83
2021/04/10 04:13:52;;;;;;;3.00;2.70;;;;;;;10.51;41.02;95386.25;5138514;27;20301;-82
2021/04/10 04:16:18;;;;;;;3.63;2.77;;;;;;;10.54;40.85;95375.59;5138959;27;20202;-82
2021/04/10 04:18:44;;;;;;;3.60;2.47;;;;;;;10.47;41.22;95376.50;5139603;27;20203;-83
2021/04/10 04:21:10;;;;;;;3.67;2.47;;;;;;;10.52;40.71;95374.97;5139622;27;20230;-83
2021/04/10 04:23:36;;;;;;;3.70;2.30;;;;;;;10.46;40.92;95385.97;5141185;27;20226;-82
2021/04/10 04:26:02;;;;;;;4.87;2.50;;;;;;;10.48;41.01;95378.88;5137798;27;20284;-83
2021/04/10 04:28:28;;;;;;;4.33;2.50;;;;;;;10.47;41.03;95386.78;5141205;27;20226;-82
2021/04/10 04:30:57;;;;;;;2.77;2.47;;;;;;;10.51;40.90;95381.09;5140932;27;20673;-82
2021/04/10 04:33:23;;;;;;;4.70;2.30;;;;;;;10.47;41.39;95392.72;5140439;27;20276;-83
2021/04/10 04:35:49;;;;;;;3.97;2.87;;;;;;;10.35;41.22;95386.47;5138871;27;20246;-81
2021/04/10 04:38:15;;;;;;;4.83;2.70;;;;;;;10.26;41.54;95390.09;5138915;27;20214;-83
2021/04/10 04:40:41;;;;;;;3.50;2.73;;;;;;;10.22;41.54;95392.22;5140112;27;20225;-83
2021/04/10 04:43:07;;;;;;;3.20;2.57;;;;;;;10.13;41.89;95389.91;5139797;27;20222;-83
2021/04/10 04:45:33;;;;;;;4.93;2.57;;;;;;;10.12;41.89;95391.69;5139887;27;20211;-82
2021/04/10 04:47:59;;;;;;;5.47;2.73;;;;;;;10.16;42.33;95392.13;5139293;27;20245;-82
2021/04/10 04:50:25;;;;;;;4.57;2.70;;;;;;;10.27;41.46;95404.56;5137686;27;20233;-83
2021/04/10 04:52:51;;;;;;;3.07;2.60;;;;;;;10.31;42.05;95410.94;5138550;27;20918;-82
2021/04/10 04:55:18;;;;;;;8.27;6.80;;;;;;;10.37;41.69;95410.25;5137838;27;20201;-81
2021/04/10 04:57:44;;;;;;;5.60;2.73;;;;;;;10.32;42.17;95412.53;5138744;27;20202;-82
2021/04/10 05:00:11;;;;;;;5.80;2.80;;;;;;;10.29;41.73;95415.47;5137915;27;20218;-83
2021/04/10 05:02:37;;;;;;;4.90;2.63;;;;;;;10.36;41.98;95421.50;5136681;27;20222;-83
2021/04/10 05:05:04;;;;;;;3.13;2.57;;;;;;;10.29;41.78;95416.28;5135120;27;20219;-82
2021/04/10 05:07:30;;;;;;;4.40;2.73;;;;;;;10.31;41.98;95422.03;5136258;27;20237;-83
2021/04/10 05:09:56;;;;;;;2.90;2.60;;;;;;;10.31;41.93;95422.03;5136852;27;20693;-83
2021/04/10 05:12:23;;;;;;;5.47;2.43;;;;;;;10.32;41.89;95422.84;5134606;27;20215;-82
2021/04/10 05:14:49;;;;;;;3.67;2.63;;;;;;;10.28;42.20;95424.16;5136691;27;20221;-83
2021/04/10 05:17:15;;;;;;;3.77;2.47;;;;;;;10.30;42.27;95425.59;5136137;27;20596;-83
2021/04/10 05:19:41;;;;;;;5.10;2.53;;;;;;;10.39;41.96;95431.44;5133747;27;20237;-83
2021/04/10 05:22:07;;;;;;;5.07;2.63;;;;;;;10.43;42.18;95431.88;5134336;27;20214;-84
2021/04/10 05:24:33;;;;;;;3.30;2.60;;;;;;;10.42;41.99;95431.06;5129065;27;20263;-83
2021/04/10 05:26:59;;;;;;;4.33;2.53;;;;;;;10.36;41.95;95431.81;5136193;27;20592;-82
2021/04/10 05:29:25;;;;;;;4.57;2.40;;;;;;;10.35;42.06;95432.78;5136871;27;20263;-83
2021/04/10 05:31:51;;;;;;;4.67;2.60;;;;;;;10.39;42.16;95436.59;5136217;27;20227;-82
2021/04/10 05:34:17;;;;;;;3.23;2.47;;;;;;;10.41;41.66;95433.81;5137440;27;20262;-84
2021/04/10 05:36:43;;;;;;;6.33;2.80;;;;;;;10.44;41.67;95438.63;5137575;27;20224;-83
2021/04/10 05:39:09;;;;;;;2.53;2.30;;;;;;;10.50;41.44;95437.91;5135133;27;20222;-83
2021/04/10 05:41:35;;;;;;;4.90;2.50;;;;;;;10.58;41.89;95433.44;5134619;27;20257;-83
2021/04/10 05:44:01;;;;;;;4.70;2.60;;;;;;;10.57;41.54;95437.03;5135226;27;20238;-83
2021/04/10 05:46:28;;;;;;;4.83;2.40;;;;;;;10.65;41.38;95436.91;5134911;27;20282;-83
2021/04/10 05:48:54;;;;;;;2.43;2.20;;;;;;;10.74;41.58;95435.03;5136599;27;20206;-81
2021/04/10 05:51:20;;;;;;;3.43;2.30;;;;;;;10.81;40.87;95433.31;5134078;27;20242;-82
2021/04/10 05:53:51;;;;;;;3.40;2.10;;;;;;;10.93;40.89;95436.22;5136457;27;20233;-82
2021/04/10 05:56:17;;;;;;;3.70;2.37;;;;;;;11.02;40.77;95440.28;5136278;27;20226;-84
2021/04/10 05:58:43;;;;;;;5.13;2.60;;;;;;;11.04;41.17;95440.91;5135274;27;20229;-83
2021/04/10 06:01:11;;;;;;;3.47;2.40;;;;;;;11.12;40.62;95440.00;5134119;27;20697;-83
2021/04/10 06:03:37;;;;;;;2.83;2.47;;;;;;;11.12;40.92;95440.78;5135819;27;20283;-82
2021/04/10 06:06:04;;;;;;;4.13;2.40;;;;;;;11.22;40.65;95437.91;5134396;27;20214;-83
2021/04/10 06:08:30;;;;;;;3.50;2.20;;;;;;;11.27;40.47;95438.16;5134678;27;20229;-84
2021/04/10 06:10:56;;;;;;;2.87;2.20;;;;;;;11.35;40.45;95440.63;5135773;27;20235;-82
2021/04/10 06:13:22;;;;;;;3.53;2.13;;;;;;;11.48;40.29;95447.66;5136314;27;20691;-82
2021/04/10 06:15:48;;;;;;;6.50;2.43;;;;;;;11.53;40.42;95446.13;5135050;27;20202;-81
2021/04/10 06:18:14;;;;;;;4.70;2.70;;;;;;;11.52;39.76;95452.28;5134759;27;20236;-82
2021/04/10 06:20:40;;;;;;;2.50;2.00;;;;;;;11.55;40.05;95441.56;5137490;27;20268;-83
2021/04/10 06:23:06;;;;;;;3.23;2.30;;;;;;;11.63;39.81;95449.19;5137143;27;20223;-82
2021/04/10 06:25:32;;;;;;;3.33;1.87;;;;;;;11.72;39.71;95448.06;5136758;27;20302;-83
2021/04/10 06:28:00;;;;;;;4.70;2.20;;;;;;;11.73;39.09;95449.69;5137612;27;20195;-82
2021/04/10 06:30:27;;;;;;;2.37;2.07;;;;;;;11.80;39.21;95456.69;5137574;27;20233;-84
2021/04/10 06:32:53;;;;;;;3.20;2.20;;;;;;;11.87;39.60;95452.38;5136652;27;20214;-83
2021/04/10 06:35:19;;;;;;;3.53;2.30;;;;;;;11.94;39.62;95448.84;5137423;27;20222;-82
2021/04/10 06:37:45;;;;;;;4.70;2.50;;;;;;;12.03;39.05;95449.50;5133324;27;20267;-81
2021/04/10 06:40:12;;;;;;;5.97;2.40;;;;;;;12.06;38.97;95449.94;5131660;27;20205;-79
2021/04/10 06:42:37;;;;;;;4.87;2.40;;;;;;;11.98;39.51;95454.44;5129973;27;20209;-79
2021/04/10 06:45:05;;;;;;;3.73;2.07;;;;;;;12.03;39.71;95445.16;5130562;27;20310;-80
2021/04/10 06:47:34;;;;;;;2.40;2.07;;;;;;;12.04;39.69;95444.16;5130284;27;20237;-78
2021/04/10 06:50:01;;;;;;;4.27;2.17;;;;;;;12.08;39.72;95447.16;5130232;27;20230;-80
2021/04/10 06:52:28;;;;;;;3.23;2.00;;;;;;;12.01;39.29;95441.16;5130287;27;20667;-82
2021/04/10 06:55:00;;;;;;;3.27;2.20;;;;;;;12.05;39.54;95437.22;5132318;27;20573;-81
2021/04/10 06:57:30;;;;;;;3.20;1.97;;;;;;;12.12;39.34;95445.00;5132367;27;20267;-83
2021/04/10 07:00:01;;;;;;;4.00;2.13;;;;;;;12.18;39.34;95439.88;5131843;27;20223;-82
2021/04/10 07:02:27;;;;;;;2.73;2.00;;;;;;;12.31;39.70;95446.91;5131242;27;20910;-83
2021/04/10 07:04:55;;;;;;;3.03;1.90;;;;;;;12.37;39.49;95446.94;5110220;28;20332;-82
2021/04/10 07:07:25;;;;;;;2.57;2.20;;;;;;;12.48;39.66;95444.81;5110272;28;20199;-82
2021/04/10 07:09:52;;;;;;;3.23;2.00;;;;;;;12.56;39.47;95445.44;5129525;28;20207;-82
2021/04/10 07:12:19;;;;;;;5.60;2.10;;;;;;;12.67;38.98;95441.53;5130709;27;20226;-80
2021/04/10 07:14:46;;;;;;;4.10;2.10;;;;;;;12.86;38.99;95450.34;5130084;27;20257;-79
2021/04/10 07:17:12;;;;;;;3.30;2.10;;;;;;;13.04;39.16;95448.81;5130193;27;20275;-81
2021/04/10 07:19:39;;;;;;;3.20;1.93;;;;;;;13.22;39.07;95453.44;5131668;27;20267;-80
2021/04/10 07:22:08;;;;;;;3.17;1.93;;;;;;;13.39;38.28;95457.25;5121731;22;20575;-81
2021/04/10 07:24:39;;;;;;;3.70;1.83;;;;;;;13.56;38.40;95449.13;5092367;28;20216;-83
2021/04/10 07:27:06;;;;;;;5.37;1.90;;;;;;;13.70;37.49;95453.28;5099194;28;20299;-82
2021/04/10 07:29:35;;;;;;;3.50;2.00;;;;;;;13.85;37.48;95451.31;5091597;28;20236;-81
2021/04/10 07:32:22;;;;;;;4.43;2.00;;;;;;;14.12;37.51;95457.25;5091418;28;20240;-82
2021/04/10 07:34:48;;;;;;;2.60;1.83;;;;;;;14.12;37.61;95452.88;5091816;28;20231;-80
2021/04/10 07:37:29;;;;;;;8.00;1.80;;;;;;;14.12;37.17;95450.28;5091861;28;20196;-82
2021/04/10 07:39:55;;;;;;;4.47;1.80;;;;;;;14.13;37.40;95458.84;5093304;28;20207;-81
2021/04/10 07:42:25;;;;;;;3.33;1.60;;;;;;;14.21;37.52;95457.84;5097903;28;20223;-83
2021/04/10 07:44:52;;;;;;;8.40;5.53;;;;;;;14.34;37.38;95466.38;5099160;28;20224;-82
2021/04/10 07:47:18;;;;;;;6.80;4.00;;;;;;;14.54;37.66;95466.38;5111141;28;20235;-83
2021/04/10 07:49:44;;;;;;;3.17;1.80;;;;;;;14.76;36.86;95470.28;5103542;28;20227;-82
2021/04/10 07:52:10;;;;;;;2.63;1.90;;;;;;;14.96;36.81;95465.03;5096163;28;20220;-82
2021/04/10 07:54:37;;;;;;;2.33;1.60;;;;;;;15.02;36.53;95478.94;5115462;28;20659;-82
2021/04/10 07:57:05;;;;;;;3.70;1.70;;;;;;;15.04;36.00;95471.75;5116159;28;20219;-81
2021/04/10 07:59:32;;;;;;;3.30;1.43;;;;;;;15.07;36.19;95477.34;5108177;28;20225;-82
2021/04/10 08:02:13;;;;;;;2.43;1.80;;;;;;;14.92;36.14;95465.66;5112568;28;20235;-82
2021/04/10 08:04:40;;;;;;;3.13;1.67;;;;;;;15.29;36.55;95469.25;5096893;28;20291;-83
2021/04/10 08:07:07;;;;;;;6.27;1.50;;;;;;;15.73;35.95;95466.59;5102455;28;20188;-83
2021/04/10 08:09:35;;;;;;;6.57;2.10;;;;;;;15.60;35.81;95477.06;5113811;28;20222;-81
2021/04/10 08:14:56;;;;;;;2.20;1.67;;;;;;;15.60;35.11;95479.66;5111392;28;20767;-82
2021/04/10 08:17:34;;;;;;;4.23;1.70;;;;;;;15.71;35.08;95471.22;5116785;28;20900;-83
2021/04/10 08:20:20;;;;;;;2.97;1.63;;;;;;;15.58;35.39;95486.88;5117364;28;20230;-83
2021/04/10 08:22:46;;;;;;;5.67;1.93;;;;;;;15.66;35.73;95493.59;5117072;28;20226;-84
2021/04/10 08:25:13;;;;;;;2.93;1.97;;;;;;;15.52;35.57;95485.09;5117384;28;20227;-81
2021/04/10 08:27:40;;;;;;;4.83;2.00;;;;;;;15.40;35.75;95478.94;5116059;28;20569;-82
2021/04/10 08:30:07;;;;;;;2.40;1.90;;;;;;;15.42;35.98;95479.53;5115126;27;20223;-81
2021/04/10 08:32:34;;;;;;;4.80;1.90;;;;;;;15.63;35.71;95487.03;5114688;28;20227;-83
2021/04/10 08:35:00;;;;;;;7.13;2.30;;;;;;;15.87;35.55;95486.25;5114750;28;20223;-82
2021/04/10 08:37:28;;;;;;;5.83;2.00;;;;;;;16.04;35.35;95478.72;5116857;28;20211;-83
2021/04/10 08:39:56;;;;;;;2.13;1.83;;;;;;;16.13;35.17;95474.88;5116800;28;20771;-83
2021/04/10 08:42:25;;;;;;;2.70;1.80;;;;;;;16.27;35.32;95475.53;5115752;28;20804;-82
2021/04/10 08:45:12;;;;;;;3.60;1.70;;;;;;;16.27;35.34;95485.13;5117173;28;20227;-82
2021/04/10 08:47:39;;;;;;;1.97;1.40;;;;;;;16.22;35.25;95477.97;5116206;28;20612;-82
2021/04/10 08:50:10;;;;;;;4.40;1.80;;;;;;;16.28;35.42;95497.13;5116090;28;20314;-83
2021/04/10 08:52:38;;;;;;;4.10;2.10;;;;;;;16.34;35.09;95498.88;5115141;28;20223;-81
2021/04/10 08:55:07;;;;;;;4.93;2.33;;;;;;;16.24;34.93;95483.75;5116510;28;20706;-82
2021/04/10 08:57:37;;;;;;;4.60;1.90;;;;;;;16.17;35.71;95490.81;5115820;28;20229;-83
2021/04/10 09:00:17;;;;;;;3.30;2.10;;;;;;;16.14;35.88;95486.84;5115128;27;20251;-82
2021/04/10 09:02:54;;;;;;;4.20;1.70;;;;;;;16.12;35.79;95483.66;5095993;28;20224;-83
2021/04/10 09:05:21;;;;;;;7.53;1.57;;;;;;;15.95;35.14;95493.00;5097081;28;20231;-83
2021/04/10 09:08:05;;;;;;;4.88;4.15;;;;;;;15.98;35.27;95495.16;5094190;28;20220;-83
2021/04/10 09:10:51;;;;;;;2.33;1.70;;;;;;;16.23;34.26;95490.75;5093735;28;20224;-82
2021/04/10 09:13:45;;;;;;;1.73;1.60;;;;;;;16.36;34.53;95502.81;5113946;28;20286;-83
2021/04/10 09:16:25;;;;;;;3.87;1.80;;;;;;;16.47;34.06;95503.94;5113589;28;20290;-82
2021/04/10 09:18:57;;;;;;;2.97;1.90;;;;;;;16.45;34.10;95508.53;5092903;28;20195;-80
2021/04/10 09:21:25;;;;;;;3.13;1.80;;;;;;;16.80;34.30;95501.81;5091781;28;20369;-83
2021/04/10 09:23:51;;;;;;;3.45;2.00;;;;;;;16.82;34.13;95499.78;5092724;28;20230;-81
2021/04/10 09:26:20;;;;;;;4.32;1.65;;;;;;;16.90;34.48;95498.72;5093544;28;20222;-82
2021/04/10 09:29:15;;;;;;;2.53;1.80;;;;;;;16.89;34.39;95492.72;5092844;28;20226;-83
2021/04/10 09:31:44;;;;;;;2.53;1.87;;;;;;;16.77;34.54;95498.84;5093023;28;20281;-83
2021/04/10 09:34:48;;;;;;;3.22;1.70;;;;;;;16.82;34.50;95489.38;5093429;28;20196;-84
2021/04/10 09:37:45;;;;;;;3.35;1.85;;;;;;;16.87;34.98;95491.34;5105742;28;20195;-82
2021/04/10 09:40:17;;;;;;;5.25;2.05;;;;;;;16.79;34.94;95495.03;5112835;28;20256;-82
2021/04/10 09:42:46;;;;;;;3.97;1.83;;;;;;;17.03;34.61;95487.34;5104481;28;20198;-82
2021/04/10 09:45:15;;;;;;;2.85;1.70;;;;;;;16.97;34.71;95496.03;5099444;28;20219;-82
2021/04/10 09:48:15;;;;;;;2.33;2.00;;;;;;;17.50;34.50;95496.97;5109072;27;20325;-82
2021/04/10 09:50:44;;;;;;;3.72;2.13;;;;;;;17.85;33.93;95497.06;5072053;28;20285;-82
2021/04/10 09:53:13;;;;;;;3.50;1.83;;;;;;;18.17;33.77;95502.78;5096135;28;20765;-83
2021/04/10 09:55:43;;;;;;;4.97;1.88;;;;;;;18.10;32.80;95491.66;5093934;28;20664;-84
2021/04/10 09:58:11;;;;;;;5.03;2.10;;;;;;;18.20;32.88;95491.91;5096197;28;20214;-83
2021/04/10 10:00:39;;;;;;;4.20;1.80;;;;;;;18.18;32.87;95480.91;5101778;28;20212;-82
2021/04/10 10:03:07;;;;;;;3.90;1.90;;;;;;;18.37;32.93;95483.41;5105469;28;20216;-83
2021/04/10 10:05:42;;;;;;;4.32;2.05;;;;;;;18.47;31.52;95478.44;5094245;28;20235;-83
2021/04/10 10:08:11;;;;;;;10.02;6.85;;;;;;;18.60;32.30;95486.03;5096786;28;20223;-82
2021/04/10 10:10:39;;;;;;;2.78;2.10;;;;;;;18.42;32.01;95480.91;5112229;28;20314;-83
2021/04/10 10:13:06;;;;;;;2.83;2.10;;;;;;;18.10;32.64;95483.84;5110005;28;20191;-83
2021/04/10 10:15:32;;;;;;;3.83;2.00;;;;;;;17.82;33.14;95478.50;5114829;28;20246;-83
2021/04/10 10:17:59;;;;;;;2.42;2.00;;;;;;;17.65;33.27;95472.34;5099384;28;20239;-82
2021/04/10 10:20:25;;;;;;;3.13;2.33;;;;;;;17.45;33.27;95465.59;5101241;28;20277;-83
2021/04/10 10:22:51;;;;;;;3.72;2.08;;;;;;;17.17;33.02;95467.94;5100472;28;20622;-82
2021/04/10 10:25:18;;;;;;;6.40;2.40;;;;;;;17.34;33.21;95471.53;5099897;28;20243;-83
2021/04/10 10:27:47;;;;;;;3.03;2.05;;;;;;;17.53;32.84;95473.06;5114742;28;20595;-82
2021/04/10 10:30:15;;;;;;;3.17;2.00;;;;;;;17.99;33.33;95463.78;5103507;28;20224;-82
2021/04/10 10:32:44;;;;;;;4.13;2.10;;;;;;;18.46;32.21;95455.97;5105411;28;20310;-83
2021/04/10 10:35:11;;;;;;;4.15;2.10;;;;;;;18.68;33.23;95449.16;5105161;28;20227;-82
2021/04/10 10:37:38;;;;;;;3.00;1.90;;;;;;;18.98;32.44;95433.31;5106547;28;20244;-83
2021/04/10 10:40:05;;;;;;;2.72;2.05;;;;;;;19.15;32.06;95443.81;5107220;28;20199;-82
2021/04/10 10:42:32;;;;;;;4.03;2.00;;;;;;;19.26;32.25;95438.53;5104835;28;20228;-83
2021/04/10 10:44:58;;;;;;;7.28;4.28;;;;;;;19.32;31.51;95434.19;5114017;28;20246;-83
2021/04/10 10:47:25;;;;;;;5.68;2.40;;;;;;;19.49;30.95;95437.63;5116106;28;20257;-83
2021/04/10 10:49:52;;;;;;;4.32;2.22;;;;;;;19.42;30.63;95430.97;5112842;27;20218;-81
2021/04/10 10:52:19;;;;;;;3.88;2.08;;;;;;;19.44;31.32;95427.06;5106606;28;20242;-82
2021/04/10 10:54:47;;;;;;;5.10;2.30;;;;;;;19.22;31.03;95419.16;5095561;28;20190;-82
2021/04/10 10:57:15;;;;;;;4.65;2.47;;;;;;;19.04;30.94;95419.34;5109644;28;20211;-83
2021/04/10 10:59:42;;;;;;;3.05;2.38;;;;;;;18.85;31.14;95423.16;5094952;28;20707;-82
2021/04/10 11:02:08;;;;;;;4.68;2.10;;;;;;;18.63;31.60;95425.59;5104386;28;20230;-82
2021/04/10 11:04:36;;;;;;;3.78;2.30;;;;;;;18.47;31.91;95416.59;5114230;28;20727;-83
2021/04/10 11:07:05;;;;;;;2.78;2.20;;;;;;;18.45;32.25;95417.88;5095985;28;20195;-82
2021/04/10 11:09:32;;;;;;;5.55;2.17;;;;;;;18.39;32.43;95410.97;5094726;28;20233;-84
2021/04/10 11:12:00;;;;;;;3.70;1.90;;;;;;;18.49;32.76;95411.97;5114212;28;20235;-83
2021/04/10 11:14:29;;;;;;;2.92;2.10;;;;;;;18.50;32.61;95408.34;5109825;28;20223;-82
2021/04/10 11:17:02;;;;;;;3.42;2.08;;;;;;;18.44;32.22;95405.88;5095256;28;20310;-84
2021/04/10 11:19:30;;;;;;;5.53;2.40;;;;;;;18.47;32.45;95400.22;5099818;28;20259;-83
2021/04/10 11:21:57;;;;;;;3.25;2.38;;;;;;;18.53;32.83;95394.06;5122679;28;20223;-83
2021/04/10 11:24:34;;;;;;;4.30;2.30;;;;;;;18.63;32.21;95394.31;5101844;27;20224;-83
2021/04/10 11:27:12;;;;;;;2.65;2.30;;;;;;;18.61;32.03;95386.69;5103775;28;20282;-83
2021/04/10 11:29:38;;;;;;;2.22;1.80;;;;;;;18.65;32.22;95384.44;5097202;28;20223;-82
2021/04/10 11:32:17;;;;;;;4.38;2.28;;;;;;;18.66;33.04;95383.41;5108449;27;20232;-81
2021/04/10 11:34:53;;;;;;;27.38;23.30;;;;;;;18.70;32.53;95368.06;5117858;28;20231;-82
2021/04/10 11:37:21;;;;;;;12.13;10.15;;;;;;;18.79;32.88;95377.91;5104425;28;20192;-83
2021/04/10 11:39:55;;;;;;;8.95;5.32;;;;;;;19.10;32.95;95373.22;5108253;28;20195;-83
2021/04/10 11:42:27;;;;;;;4.47;2.80;;;;;;;19.14;31.20;95367.31;5120213;28;20267;-82
2021/04/10 11:44:54;;;;;;;4.22;2.38;;;;;;;19.03;31.43;95367.38;5116937;28;20219;-82